sensor_id;sensor_type;location;lat;lon;timestamp;P1;durP1;ratioP1;P2;durP2;ratioP2
49051;SDS011;34866;48.670;18.260;2023-09-12T00:01:05;13.43;;;6.47;;
49051;SDS011;34866;48.670;18.260;2023-09-12T00:03:32;8.77;;;5.13;;
49051;SDS011;34866;48.670;18.260;2023-09-12T00:05:58;12.82;;;5.40;;
49051;SDS011;34866;48.670;18.260;2023-09-12T00:08:25;12.45;;;5.72;;
49051;SDS011;34866;48.670;18.260;2023-09-12T00:13:29;10.68;;;5.30;;
49051;SDS011;34866;48.670;18.260;2023-09-12T00:15:55;15.20;;;5.68;;
49051;SDS011;34866;48.670;18.260;2023-09-12T00:18:22;8.45;;;4.78;;
49051;SDS011;34866;48.670;18.260;2023-09-12T00:20:48;10.00;;;5.22;;
49051;SDS011;34866;48.670;18.260;2023-09-12T00:23:14;8.20;;;4.80;;
49051;SDS011;34866;48.670;18.260;2023-09-12T00:25:40;9.10;;;5.05;;
49051;SDS011;34866;48.670;18.260;2023-09-12T00:28:06;7.95;;;5.07;;
49051;SDS011;34866;48.670;18.260;2023-09-12T00:30:32;9.73;;;4.97;;
49051;SDS011;34866;48.670;18.260;2023-09-12T00:32:58;11.23;;;4.63;;
49051;SDS011;34866;48.670;18.260;2023-09-12T00:35:24;9.75;;;5.45;;
49051;SDS011;34866;48.670;18.260;2023-09-12T00:37:50;8.38;;;5.32;;
49051;SDS011;34866;48.670;18.260;2023-09-12T00:40:16;8.77;;;5.13;;
49051;SDS011;34866;48.670;18.260;2023-09-12T00:42:42;12.10;;;5.10;;
49051;SDS011;34866;48.670;18.260;2023-09-12T00:45:08;9.68;;;5.53;;
49051;SDS011;34866;48.670;18.260;2023-09-12T00:47:34;13.00;;;5.78;;
49051;SDS011;34866;48.670;18.260;2023-09-12T00:50:01;12.02;;;5.88;;
49051;SDS011;34866;48.670;18.260;2023-09-12T00:52:28;9.20;;;5.68;;
49051;SDS011;34866;48.670;18.260;2023-09-12T00:54:54;8.98;;;4.78;;
49051;SDS011;34866;48.670;18.260;2023-09-12T00:57:21;8.73;;;5.60;;
49051;SDS011;34866;48.670;18.260;2023-09-12T00:59:47;9.25;;;5.80;;
49051;SDS011;34866;48.670;18.260;2023-09-12T01:02:14;9.80;;;5.15;;
49051;SDS011;34866;48.670;18.260;2023-09-12T01:04:41;10.70;;;5.40;;
49051;SDS011;34866;48.670;18.260;2023-09-12T01:07:07;9.38;;;5.53;;
49051;SDS011;34866;48.670;18.260;2023-09-12T01:09:33;10.60;;;4.93;;
49051;SDS011;34866;48.670;18.260;2023-09-12T01:12:00;10.00;;;5.38;;
49051;SDS011;34866;48.670;18.260;2023-09-12T01:14:29;9.52;;;5.57;;
49051;SDS011;34866;48.670;18.260;2023-09-12T01:16:56;10.38;;;5.47;;
49051;SDS011;34866;48.670;18.260;2023-09-12T01:19:23;10.20;;;5.72;;
49051;SDS011;34866;48.670;18.260;2023-09-12T01:29:44;7.75;;;4.53;;
49051;SDS011;34866;48.670;18.260;2023-09-12T01:32:12;8.68;;;5.22;;
49051;SDS011;34866;48.670;18.260;2023-09-12T01:34:39;7.82;;;4.57;;
49051;SDS011;34866;48.670;18.260;2023-09-12T01:37:05;11.77;;;5.10;;
49051;SDS011;34866;48.670;18.260;2023-09-12T01:39:31;9.93;;;6.10;;
49051;SDS011;34866;48.670;18.260;2023-09-12T01:41:58;10.07;;;5.18;;
49051;SDS011;34866;48.670;18.260;2023-09-12T01:44:25;8.63;;;5.30;;
49051;SDS011;34866;48.670;18.260;2023-09-12T01:46:53;10.00;;;5.25;;
49051;SDS011;34866;48.670;18.260;2023-09-12T01:49:22;9.32;;;5.35;;
49051;SDS011;34866;48.670;18.260;2023-09-12T01:51:50;11.13;;;5.25;;
49051;SDS011;34866;48.670;18.260;2023-09-12T01:54:17;11.25;;;5.95;;
49051;SDS011;34866;48.670;18.260;2023-09-12T01:56:44;12.02;;;5.20;;
49051;SDS011;34866;48.670;18.260;2023-09-12T01:59:11;12.60;;;5.97;;
49051;SDS011;34866;48.670;18.260;2023-09-12T02:01:37;10.02;;;5.22;;
49051;SDS011;34866;48.670;18.260;2023-09-12T02:04:03;8.32;;;5.10;;
49051;SDS011;34866;48.670;18.260;2023-09-12T02:06:33;8.40;;;5.28;;
49051;SDS011;34866;48.670;18.260;2023-09-12T02:09:00;8.30;;;5.30;;
49051;SDS011;34866;48.670;18.260;2023-09-12T02:11:26;10.40;;;5.20;;
49051;SDS011;34866;48.670;18.260;2023-09-12T02:13:52;8.20;;;4.75;;
49051;SDS011;34866;48.670;18.260;2023-09-12T02:16:18;9.75;;;4.80;;
49051;SDS011;34866;48.670;18.260;2023-09-12T02:18:44;9.90;;;5.00;;
49051;SDS011;34866;48.670;18.260;2023-09-12T02:21:10;9.05;;;5.22;;
49051;SDS011;34866;48.670;18.260;2023-09-12T02:23:36;8.52;;;4.80;;
49051;SDS011;34866;48.670;18.260;2023-09-12T02:26:02;9.45;;;5.40;;
49051;SDS011;34866;48.670;18.260;2023-09-12T02:28:28;9.65;;;4.88;;
49051;SDS011;34866;48.670;18.260;2023-09-12T02:30:54;10.15;;;5.40;;
49051;SDS011;34866;48.670;18.260;2023-09-12T02:33:20;9.48;;;5.05;;
49051;SDS011;34866;48.670;18.260;2023-09-12T02:35:46;9.82;;;5.45;;
49051;SDS011;34866;48.670;18.260;2023-09-12T02:38:13;10.85;;;6.13;;
49051;SDS011;34866;48.670;18.260;2023-09-12T02:40:39;12.10;;;5.30;;
49051;SDS011;34866;48.670;18.260;2023-09-12T02:43:05;9.73;;;4.88;;
49051;SDS011;34866;48.670;18.260;2023-09-12T02:45:31;8.65;;;5.00;;
49051;SDS011;34866;48.670;18.260;2023-09-12T02:47:58;8.77;;;5.35;;
49051;SDS011;34866;48.670;18.260;2023-09-12T02:50:24;9.55;;;5.32;;
49051;SDS011;34866;48.670;18.260;2023-09-12T02:52:50;9.00;;;5.53;;
49051;SDS011;34866;48.670;18.260;2023-09-12T02:55:16;10.57;;;5.63;;
49051;SDS011;34866;48.670;18.260;2023-09-12T02:57:42;10.05;;;5.20;;
49051;SDS011;34866;48.670;18.260;2023-09-12T03:00:08;9.77;;;5.30;;
49051;SDS011;34866;48.670;18.260;2023-09-12T03:02:36;11.27;;;5.18;;
49051;SDS011;34866;48.670;18.260;2023-09-12T03:05:02;8.07;;;4.55;;
49051;SDS011;34866;48.670;18.260;2023-09-12T03:07:29;10.05;;;5.40;;
49051;SDS011;34866;48.670;18.260;2023-09-12T03:09:55;9.07;;;4.45;;
49051;SDS011;34866;48.670;18.260;2023-09-12T03:12:21;9.45;;;4.95;;
49051;SDS011;34866;48.670;18.260;2023-09-12T03:14:47;9.18;;;4.97;;
49051;SDS011;34866;48.670;18.260;2023-09-12T03:17:13;10.38;;;5.55;;
49051;SDS011;34866;48.670;18.260;2023-09-12T03:19:39;9.10;;;4.75;;
49051;SDS011;34866;48.670;18.260;2023-09-12T03:22:05;11.10;;;5.40;;
49051;SDS011;34866;48.670;18.260;2023-09-12T03:24:31;8.40;;;4.80;;
49051;SDS011;34866;48.670;18.260;2023-09-12T03:26:57;10.07;;;5.38;;
49051;SDS011;34866;48.670;18.260;2023-09-12T03:29:24;10.50;;;5.93;;
49051;SDS011;34866;48.670;18.260;2023-09-12T03:31:50;10.25;;;5.63;;
49051;SDS011;34866;48.670;18.260;2023-09-12T03:34:16;8.50;;;5.15;;
49051;SDS011;34866;48.670;18.260;2023-09-12T03:36:42;12.05;;;5.72;;
49051;SDS011;34866;48.670;18.260;2023-09-12T03:39:08;9.55;;;5.32;;
49051;SDS011;34866;48.670;18.260;2023-09-12T03:41:37;8.57;;;5.28;;
49051;SDS011;34866;48.670;18.260;2023-09-12T03:44:03;9.10;;;4.97;;
49051;SDS011;34866;48.670;18.260;2023-09-12T03:46:29;9.32;;;5.63;;
49051;SDS011;34866;48.670;18.260;2023-09-12T03:48:55;13.82;;;5.93;;
49051;SDS011;34866;48.670;18.260;2023-09-12T03:51:21;9.75;;;5.13;;
49051;SDS011;34866;48.670;18.260;2023-09-12T03:53:47;9.73;;;5.40;;
49051;SDS011;34866;48.670;18.260;2023-09-12T03:56:15;10.00;;;5.05;;
49051;SDS011;34866;48.670;18.260;2023-09-12T03:58:41;12.05;;;4.80;;
49051;SDS011;34866;48.670;18.260;2023-09-12T04:01:07;9.43;;;5.07;;
49051;SDS011;34866;48.670;18.260;2023-09-12T04:03:33;10.57;;;5.25;;
49051;SDS011;34866;48.670;18.260;2023-09-12T04:05:59;10.50;;;5.70;;
49051;SDS011;34866;48.670;18.260;2023-09-12T04:08:25;11.23;;;5.65;;
49051;SDS011;34866;48.670;18.260;2023-09-12T04:10:51;9.85;;;5.38;;
49051;SDS011;34866;48.670;18.260;2023-09-12T04:13:17;13.95;;;5.35;;
49051;SDS011;34866;48.670;18.260;2023-09-12T04:15:43;12.27;;;4.82;;
49051;SDS011;34866;48.670;18.260;2023-09-12T04:18:09;12.38;;;5.65;;
49051;SDS011;34866;48.670;18.260;2023-09-12T04:20:35;9.43;;;5.25;;
49051;SDS011;34866;48.670;18.260;2023-09-12T04:23:02;8.05;;;4.90;;
49051;SDS011;34866;48.670;18.260;2023-09-12T04:25:28;8.93;;;5.25;;
49051;SDS011;34866;48.670;18.260;2023-09-12T04:27:54;15.38;;;6.43;;
49051;SDS011;34866;48.670;18.260;2023-09-12T04:30:20;8.35;;;5.20;;
49051;SDS011;34866;48.670;18.260;2023-09-12T04:32:47;10.02;;;5.07;;
49051;SDS011;34866;48.670;18.260;2023-09-12T04:35:13;10.05;;;5.15;;
49051;SDS011;34866;48.670;18.260;2023-09-12T04:37:39;13.88;;;5.43;;
49051;SDS011;34866;48.670;18.260;2023-09-12T04:40:06;10.68;;;5.13;;
49051;SDS011;34866;48.670;18.260;2023-09-12T04:42:32;10.65;;;5.47;;
49051;SDS011;34866;48.670;18.260;2023-09-12T04:44:58;12.10;;;5.13;;
49051;SDS011;34866;48.670;18.260;2023-09-12T04:47:24;8.50;;;5.35;;
49051;SDS011;34866;48.670;18.260;2023-09-12T04:49:50;7.75;;;4.43;;
49051;SDS011;34866;48.670;18.260;2023-09-12T04:52:19;9.25;;;4.70;;
49051;SDS011;34866;48.670;18.260;2023-09-12T04:54:45;9.18;;;5.40;;
49051;SDS011;34866;48.670;18.260;2023-09-12T04:57:11;9.82;;;5.20;;
49051;SDS011;34866;48.670;18.260;2023-09-12T04:59:37;9.18;;;4.90;;
49051;SDS011;34866;48.670;18.260;2023-09-12T05:02:03;12.30;;;5.80;;
49051;SDS011;34866;48.670;18.260;2023-09-12T05:04:30;11.68;;;5.93;;
49051;SDS011;34866;48.670;18.260;2023-09-12T05:06:57;18.52;;;5.20;;
49051;SDS011;34866;48.670;18.260;2023-09-12T05:09:23;8.57;;;5.35;;
49051;SDS011;34866;48.670;18.260;2023-09-12T05:11:49;9.13;;;5.60;;
49051;SDS011;34866;48.670;18.260;2023-09-12T05:14:15;13.85;;;5.43;;
49051;SDS011;34866;48.670;18.260;2023-09-12T05:16:41;11.35;;;5.40;;
49051;SDS011;34866;48.670;18.260;2023-09-12T05:19:07;9.45;;;4.88;;
49051;SDS011;34866;48.670;18.260;2023-09-12T05:21:33;14.13;;;5.55;;
49051;SDS011;34866;48.670;18.260;2023-09-12T05:23:59;12.35;;;5.30;;
49051;SDS011;34866;48.670;18.260;2023-09-12T05:26:25;13.10;;;5.28;;
49051;SDS011;34866;48.670;18.260;2023-09-12T05:28:51;7.55;;;5.00;;
49051;SDS011;34866;48.670;18.260;2023-09-12T05:31:17;9.68;;;5.72;;
49051;SDS011;34866;48.670;18.260;2023-09-12T05:33:44;12.75;;;5.45;;
49051;SDS011;34866;48.670;18.260;2023-09-12T05:36:10;12.88;;;6.15;;
49051;SDS011;34866;48.670;18.260;2023-09-12T05:38:36;11.35;;;5.35;;
49051;SDS011;34866;48.670;18.260;2023-09-12T05:41:02;10.73;;;4.82;;
49051;SDS011;34866;48.670;18.260;2023-09-12T05:43:28;11.75;;;5.40;;
49051;SDS011;34866;48.670;18.260;2023-09-12T05:45:54;10.63;;;5.72;;
49051;SDS011;34866;48.670;18.260;2023-09-12T05:48:21;10.45;;;5.20;;
49051;SDS011;34866;48.670;18.260;2023-09-12T05:50:47;14.18;;;5.90;;
49051;SDS011;34866;48.670;18.260;2023-09-12T05:53:13;11.38;;;5.72;;
49051;SDS011;34866;48.670;18.260;2023-09-12T05:55:39;12.38;;;5.72;;
49051;SDS011;34866;48.670;18.260;2023-09-12T05:58:06;10.48;;;5.35;;
49051;SDS011;34866;48.670;18.260;2023-09-12T06:00:32;8.18;;;5.03;;
49051;SDS011;34866;48.670;18.260;2023-09-12T06:02:58;10.23;;;5.78;;
49051;SDS011;34866;48.670;18.260;2023-09-12T06:05:24;12.80;;;5.65;;
49051;SDS011;34866;48.670;18.260;2023-09-12T06:07:50;15.32;;;5.68;;
49051;SDS011;34866;48.670;18.260;2023-09-12T06:10:16;7.57;;;5.20;;
49051;SDS011;34866;48.670;18.260;2023-09-12T06:12:42;10.40;;;5.50;;
49051;SDS011;34866;48.670;18.260;2023-09-12T06:15:08;11.23;;;5.38;;
49051;SDS011;34866;48.670;18.260;2023-09-12T06:17:35;10.80;;;5.43;;
49051;SDS011;34866;48.670;18.260;2023-09-12T06:20:01;13.82;;;6.28;;
49051;SDS011;34866;48.670;18.260;2023-09-12T06:22:28;11.80;;;5.32;;
49051;SDS011;34866;48.670;18.260;2023-09-12T06:24:54;9.07;;;5.35;;
49051;SDS011;34866;48.670;18.260;2023-09-12T06:27:20;10.20;;;5.28;;
49051;SDS011;34866;48.670;18.260;2023-09-12T06:29:47;9.30;;;4.78;;
49051;SDS011;34866;48.670;18.260;2023-09-12T06:32:14;11.20;;;5.15;;
49051;SDS011;34866;48.670;18.260;2023-09-12T06:34:40;10.68;;;5.18;;
49051;SDS011;34866;48.670;18.260;2023-09-12T06:37:07;10.25;;;4.90;;
49051;SDS011;34866;48.670;18.260;2023-09-12T06:39:33;10.43;;;5.30;;
49051;SDS011;34866;48.670;18.260;2023-09-12T06:41:59;10.45;;;5.63;;
49051;SDS011;34866;48.670;18.260;2023-09-12T06:44:25;8.93;;;5.35;;
49051;SDS011;34866;48.670;18.260;2023-09-12T06:46:51;9.82;;;6.00;;
49051;SDS011;34866;48.670;18.260;2023-09-12T06:49:17;10.68;;;4.53;;
49051;SDS011;34866;48.670;18.260;2023-09-12T06:51:43;8.95;;;5.40;;
49051;SDS011;34866;48.670;18.260;2023-09-12T06:54:09;17.65;;;5.35;;
49051;SDS011;34866;48.670;18.260;2023-09-12T06:56:35;8.98;;;4.82;;
49051;SDS011;34866;48.670;18.260;2023-09-12T06:59:03;12.02;;;5.10;;
49051;SDS011;34866;48.670;18.260;2023-09-12T07:01:29;10.40;;;5.40;;
49051;SDS011;34866;48.670;18.260;2023-09-12T07:03:55;9.85;;;4.70;;
49051;SDS011;34866;48.670;18.260;2023-09-12T07:06:22;16.75;;;5.93;;
49051;SDS011;34866;48.670;18.260;2023-09-12T07:08:48;12.75;;;5.45;;
49051;SDS011;34866;48.670;18.260;2023-09-12T07:11:14;11.20;;;6.03;;
49051;SDS011;34866;48.670;18.260;2023-09-12T07:13:40;8.88;;;5.45;;
49051;SDS011;34866;48.670;18.260;2023-09-12T07:16:07;12.10;;;5.15;;
49051;SDS011;34866;48.670;18.260;2023-09-12T07:18:33;14.50;;;5.70;;
49051;SDS011;34866;48.670;18.260;2023-09-12T07:21:02;8.93;;;5.28;;
49051;SDS011;34866;48.670;18.260;2023-09-12T07:23:29;13.05;;;5.22;;
49051;SDS011;34866;48.670;18.260;2023-09-12T07:25:55;9.95;;;4.90;;
49051;SDS011;34866;48.670;18.260;2023-09-12T07:28:25;9.65;;;5.05;;
49051;SDS011;34866;48.670;18.260;2023-09-12T07:30:51;9.60;;;4.50;;
49051;SDS011;34866;48.670;18.260;2023-09-12T07:33:17;12.82;;;5.38;;
49051;SDS011;34866;48.670;18.260;2023-09-12T07:35:43;11.02;;;5.38;;
49051;SDS011;34866;48.670;18.260;2023-09-12T07:38:09;10.45;;;4.70;;
49051;SDS011;34866;48.670;18.260;2023-09-12T07:40:35;10.48;;;4.13;;
49051;SDS011;34866;48.670;18.260;2023-09-12T07:43:01;9.20;;;4.70;;
49051;SDS011;34866;48.670;18.260;2023-09-12T07:45:28;8.48;;;4.97;;
49051;SDS011;34866;48.670;18.260;2023-09-12T07:47:56;9.52;;;4.65;;
49051;SDS011;34866;48.670;18.260;2023-09-12T07:50:22;8.45;;;4.78;;
49051;SDS011;34866;48.670;18.260;2023-09-12T07:52:48;16.23;;;5.07;;
49051;SDS011;34866;48.670;18.260;2023-09-12T07:55:14;7.05;;;4.40;;
49051;SDS011;34866;48.670;18.260;2023-09-12T07:57:40;7.30;;;4.22;;
49051;SDS011;34866;48.670;18.260;2023-09-12T08:00:06;8.68;;;4.75;;
49051;SDS011;34866;48.670;18.260;2023-09-12T08:02:34;8.50;;;3.95;;
49051;SDS011;34866;48.670;18.260;2023-09-12T08:05:00;9.25;;;4.10;;
49051;SDS011;34866;48.670;18.260;2023-09-12T08:07:26;6.55;;;4.05;;
49051;SDS011;34866;48.670;18.260;2023-09-12T08:09:53;8.60;;;4.30;;
49051;SDS011;34866;48.670;18.260;2023-09-12T08:12:20;6.78;;;4.10;;
49051;SDS011;34866;48.670;18.260;2023-09-12T08:14:46;9.05;;;4.43;;
49051;SDS011;34866;48.670;18.260;2023-09-12T08:17:13;10.75;;;4.07;;
49051;SDS011;34866;48.670;18.260;2023-09-12T08:19:39;10.15;;;4.32;;
49051;SDS011;34866;48.670;18.260;2023-09-12T08:22:05;8.77;;;4.20;;
49051;SDS011;34866;48.670;18.260;2023-09-12T08:24:32;7.35;;;4.30;;
49051;SDS011;34866;48.670;18.260;2023-09-12T08:26:58;8.32;;;4.00;;
49051;SDS011;34866;48.670;18.260;2023-09-12T08:29:25;7.47;;;4.30;;
49051;SDS011;34866;48.670;18.260;2023-09-12T08:31:51;7.05;;;3.83;;
49051;SDS011;34866;48.670;18.260;2023-09-12T08:34:18;9.02;;;4.13;;
49051;SDS011;34866;48.670;18.260;2023-09-12T08:36:44;6.95;;;4.47;;
49051;SDS011;34866;48.670;18.260;2023-09-12T08:39:11;8.68;;;4.07;;
49051;SDS011;34866;48.670;18.260;2023-09-12T08:41:37;16.15;;;4.30;;
49051;SDS011;34866;48.670;18.260;2023-09-12T08:44:04;7.82;;;4.18;;
49051;SDS011;34866;48.670;18.260;2023-09-12T08:46:31;9.65;;;4.22;;
49051;SDS011;34866;48.670;18.260;2023-09-12T08:48:57;8.95;;;4.22;;
49051;SDS011;34866;48.670;18.260;2023-09-12T08:51:23;7.38;;;4.53;;
49051;SDS011;34866;48.670;18.260;2023-09-12T08:53:52;8.80;;;4.03;;
49051;SDS011;34866;48.670;18.260;2023-09-12T08:56:18;6.97;;;4.05;;
49051;SDS011;34866;48.670;18.260;2023-09-12T08:58:44;9.02;;;3.78;;
49051;SDS011;34866;48.670;18.260;2023-09-12T09:01:13;9.52;;;3.85;;
49051;SDS011;34866;48.670;18.260;2023-09-12T09:03:42;7.75;;;3.75;;
49051;SDS011;34866;48.670;18.260;2023-09-12T09:06:08;11.60;;;3.72;;
49051;SDS011;34866;48.670;18.260;2023-09-12T09:08:34;7.35;;;3.75;;
49051;SDS011;34866;48.670;18.260;2023-09-12T09:11:01;13.27;;;3.92;;
49051;SDS011;34866;48.670;18.260;2023-09-12T09:13:28;9.70;;;3.42;;
49051;SDS011;34866;48.670;18.260;2023-09-12T09:16:13;6.03;;;3.55;;
49051;SDS011;34866;48.670;18.260;2023-09-12T09:18:52;8.63;;;4.07;;
49051;SDS011;34866;48.670;18.260;2023-09-12T09:21:19;9.23;;;3.67;;
49051;SDS011;34866;48.670;18.260;2023-09-12T09:23:45;8.93;;;3.60;;
49051;SDS011;34866;48.670;18.260;2023-09-12T09:26:12;13.65;;;3.90;;
49051;SDS011;34866;48.670;18.260;2023-09-12T09:28:38;7.10;;;3.40;;
49051;SDS011;34866;48.670;18.260;2023-09-12T09:31:05;10.73;;;3.90;;
49051;SDS011;34866;48.670;18.260;2023-09-12T09:33:35;6.72;;;3.75;;
49051;SDS011;34866;48.670;18.260;2023-09-12T09:36:02;9.02;;;3.70;;
49051;SDS011;34866;48.670;18.260;2023-09-12T09:38:29;13.05;;;3.70;;
49051;SDS011;34866;48.670;18.260;2023-09-12T09:40:55;11.45;;;3.28;;
49051;SDS011;34866;48.670;18.260;2023-09-12T09:43:21;10.50;;;3.88;;
49051;SDS011;34866;48.670;18.260;2023-09-12T09:45:47;6.15;;;3.50;;
49051;SDS011;34866;48.670;18.260;2023-09-12T09:48:23;9.45;;;3.60;;
49051;SDS011;34866;48.670;18.260;2023-09-12T09:50:52;8.93;;;3.08;;
49051;SDS011;34866;48.670;18.260;2023-09-12T09:53:28;10.20;;;3.70;;
49051;SDS011;34866;48.670;18.260;2023-09-12T09:56:14;11.07;;;3.80;;
49051;SDS011;34866;48.670;18.260;2023-09-12T09:58:46;8.02;;;3.47;;
49051;SDS011;34866;48.670;18.260;2023-09-12T10:01:19;7.68;;;3.65;;
49051;SDS011;34866;48.670;18.260;2023-09-12T10:03:46;9.95;;;3.45;;
49051;SDS011;34866;48.670;18.260;2023-09-12T10:06:13;7.00;;;3.63;;
49051;SDS011;34866;48.670;18.260;2023-09-12T10:08:41;6.75;;;3.05;;
49051;SDS011;34866;48.670;18.260;2023-09-12T10:11:08;14.07;;;3.75;;
49051;SDS011;34866;48.670;18.260;2023-09-12T10:13:34;7.65;;;3.20;;
49051;SDS011;34866;48.670;18.260;2023-09-12T10:16:01;12.88;;;3.08;;
49051;SDS011;34866;48.670;18.260;2023-09-12T10:18:30;8.63;;;3.47;;
49051;SDS011;34866;48.670;18.260;2023-09-12T10:20:58;6.95;;;3.28;;
49051;SDS011;34866;48.670;18.260;2023-09-12T10:23:39;8.40;;;3.20;;
49051;SDS011;34866;48.670;18.260;2023-09-12T10:26:16;16.00;;;4.22;;
49051;SDS011;34866;48.670;18.260;2023-09-12T10:28:43;6.13;;;3.10;;
49051;SDS011;34866;48.670;18.260;2023-09-12T10:31:11;6.70;;;3.40;;
49051;SDS011;34866;48.670;18.260;2023-09-12T10:33:37;7.88;;;3.35;;
49051;SDS011;34866;48.670;18.260;2023-09-12T10:36:03;5.43;;;2.78;;
49051;SDS011;34866;48.670;18.260;2023-09-12T10:38:32;18.35;;;4.35;;
49051;SDS011;34866;48.670;18.260;2023-09-12T10:41:00;13.10;;;4.07;;
49051;SDS011;34866;48.670;18.260;2023-09-12T10:43:28;8.05;;;3.92;;
49051;SDS011;34866;48.670;18.260;2023-09-12T10:45:54;6.18;;;3.28;;
49051;SDS011;34866;48.670;18.260;2023-09-12T10:48:20;9.70;;;3.65;;
49051;SDS011;34866;48.670;18.260;2023-09-12T10:50:46;10.80;;;3.22;;
49051;SDS011;34866;48.670;18.260;2023-09-12T10:53:13;7.63;;;3.63;;
49051;SDS011;34866;48.670;18.260;2023-09-12T10:55:40;7.30;;;3.38;;
49051;SDS011;34866;48.670;18.260;2023-09-12T10:58:09;10.43;;;3.40;;
49051;SDS011;34866;48.670;18.260;2023-09-12T11:00:36;15.27;;;3.58;;
49051;SDS011;34866;48.670;18.260;2023-09-12T11:05:52;12.68;;;3.30;;
49051;SDS011;34866;48.670;18.260;2023-09-12T11:08:18;6.95;;;2.97;;
49051;SDS011;34866;48.670;18.260;2023-09-12T11:10:45;9.77;;;2.50;;
49051;SDS011;34866;48.670;18.260;2023-09-12T11:13:37;11.38;;;3.03;;
49051;SDS011;34866;48.670;18.260;2023-09-12T11:16:10;8.55;;;2.80;;
49051;SDS011;34866;48.670;18.260;2023-09-12T11:21:31;8.13;;;3.15;;
49051;SDS011;34866;48.670;18.260;2023-09-12T11:23:57;9.00;;;3.50;;
49051;SDS011;34866;48.670;18.260;2023-09-12T11:26:24;8.65;;;3.30;;
49051;SDS011;34866;48.670;18.260;2023-09-12T11:28:50;6.60;;;2.55;;
49051;SDS011;34866;48.670;18.260;2023-09-12T11:31:51;6.55;;;2.92;;
49051;SDS011;34866;48.670;18.260;2023-09-12T11:34:08;14.20;;;2.83;;
49051;SDS011;34866;48.670;18.260;2023-09-12T11:36:41;8.85;;;2.95;;
49051;SDS011;34866;48.670;18.260;2023-09-12T11:39:40;6.30;;;2.75;;
49051;SDS011;34866;48.670;18.260;2023-09-12T11:42:00;8.77;;;2.90;;
49051;SDS011;34866;48.670;18.260;2023-09-12T11:44:27;6.05;;;2.92;;
49051;SDS011;34866;48.670;18.260;2023-09-12T11:46:53;8.60;;;3.28;;
49051;SDS011;34866;48.670;18.260;2023-09-12T11:49:20;6.18;;;2.95;;
49051;SDS011;34866;48.670;18.260;2023-09-12T11:51:54;7.82;;;3.75;;
49051;SDS011;34866;48.670;18.260;2023-09-12T11:54:24;9.80;;;2.53;;
49051;SDS011;34866;48.670;18.260;2023-09-12T11:56:50;11.00;;;2.63;;
49051;SDS011;34866;48.670;18.260;2023-09-12T11:59:28;4.85;;;2.47;;
49051;SDS011;34866;48.670;18.260;2023-09-12T12:01:55;6.15;;;3.38;;
49051;SDS011;34866;48.670;18.260;2023-09-12T12:04:24;9.07;;;3.03;;
49051;SDS011;34866;48.670;18.260;2023-09-12T12:06:53;8.02;;;2.53;;
49051;SDS011;34866;48.670;18.260;2023-09-12T12:09:19;9.02;;;2.42;;
49051;SDS011;34866;48.670;18.260;2023-09-12T12:11:47;9.07;;;2.55;;
49051;SDS011;34866;48.670;18.260;2023-09-12T12:14:14;6.50;;;2.60;;
49051;SDS011;34866;48.670;18.260;2023-09-12T12:16:41;8.48;;;2.60;;
49051;SDS011;34866;48.670;18.260;2023-09-12T12:19:08;10.80;;;2.53;;
49051;SDS011;34866;48.670;18.260;2023-09-12T12:21:42;8.07;;;2.80;;
49051;SDS011;34866;48.670;18.260;2023-09-12T12:24:13;9.80;;;2.85;;
49051;SDS011;34866;48.670;18.260;2023-09-12T12:26:42;8.98;;;3.35;;
49051;SDS011;34866;48.670;18.260;2023-09-12T12:29:09;9.07;;;2.88;;
49051;SDS011;34866;48.670;18.260;2023-09-12T12:31:36;11.40;;;3.05;;
49051;SDS011;34866;48.670;18.260;2023-09-12T12:34:02;7.15;;;2.95;;
49051;SDS011;34866;48.670;18.260;2023-09-12T12:36:29;9.38;;;2.60;;
49051;SDS011;34866;48.670;18.260;2023-09-12T12:38:55;5.07;;;2.35;;
49051;SDS011;34866;48.670;18.260;2023-09-12T12:41:25;8.15;;;3.03;;
49051;SDS011;34866;48.670;18.260;2023-09-12T12:43:53;7.00;;;2.90;;
49051;SDS011;34866;48.670;18.260;2023-09-12T12:46:24;10.18;;;2.85;;
49051;SDS011;34866;48.670;18.260;2023-09-12T12:48:50;9.57;;;3.42;;
49051;SDS011;34866;48.670;18.260;2023-09-12T12:51:16;10.57;;;2.50;;
49051;SDS011;34866;48.670;18.260;2023-09-12T12:53:46;7.68;;;2.55;;
49051;SDS011;34866;48.670;18.260;2023-09-12T12:56:14;11.60;;;2.97;;
49051;SDS011;34866;48.670;18.260;2023-09-12T12:58:50;7.40;;;3.00;;
49051;SDS011;34866;48.670;18.260;2023-09-12T13:01:17;8.38;;;2.80;;
49051;SDS011;34866;48.670;18.260;2023-09-12T13:03:43;12.98;;;3.17;;
49051;SDS011;34866;48.670;18.260;2023-09-12T13:06:10;11.80;;;2.92;;
49051;SDS011;34866;48.670;18.260;2023-09-12T13:08:40;13.25;;;2.97;;
49051;SDS011;34866;48.670;18.260;2023-09-12T13:11:07;13.60;;;3.38;;
49051;SDS011;34866;48.670;18.260;2023-09-12T13:13:34;11.05;;;2.80;;
49051;SDS011;34866;48.670;18.260;2023-09-12T13:16:01;9.43;;;2.50;;
49051;SDS011;34866;48.670;18.260;2023-09-12T13:18:29;9.68;;;3.17;;
49051;SDS011;34866;48.670;18.260;2023-09-12T13:20:59;16.92;;;2.90;;
49051;SDS011;34866;48.670;18.260;2023-09-12T13:23:25;10.40;;;2.63;;
49051;SDS011;34866;48.670;18.260;2023-09-12T13:25:51;7.18;;;2.70;;
49051;SDS011;34866;48.670;18.260;2023-09-12T13:28:17;7.95;;;2.40;;
49051;SDS011;34866;48.670;18.260;2023-09-12T13:30:43;9.88;;;3.40;;
49051;SDS011;34866;48.670;18.260;2023-09-12T13:33:10;10.07;;;2.80;;
49051;SDS011;34866;48.670;18.260;2023-09-12T13:35:36;9.07;;;3.15;;
49051;SDS011;34866;48.670;18.260;2023-09-12T13:38:02;7.63;;;2.65;;
49051;SDS011;34866;48.670;18.260;2023-09-12T13:40:35;9.23;;;2.75;;
49051;SDS011;34866;48.670;18.260;2023-09-12T13:43:03;6.03;;;2.72;;
49051;SDS011;34866;48.670;18.260;2023-09-12T13:45:29;8.43;;;2.58;;
49051;SDS011;34866;48.670;18.260;2023-09-12T13:47:54;6.60;;;2.47;;
49051;SDS011;34866;48.670;18.260;2023-09-12T13:50:20;13.88;;;2.72;;
49051;SDS011;34866;48.670;18.260;2023-09-12T13:52:46;11.50;;;2.78;;
49051;SDS011;34866;48.670;18.260;2023-09-12T13:55:11;9.40;;;2.83;;
49051;SDS011;34866;48.670;18.260;2023-09-12T13:57:40;8.88;;;2.75;;
49051;SDS011;34866;48.670;18.260;2023-09-12T14:00:07;5.80;;;2.42;;
49051;SDS011;34866;48.670;18.260;2023-09-12T14:02:33;13.68;;;2.90;;
49051;SDS011;34866;48.670;18.260;2023-09-12T14:04:59;14.93;;;2.55;;
49051;SDS011;34866;48.670;18.260;2023-09-12T14:07:25;6.80;;;2.88;;
49051;SDS011;34866;48.670;18.260;2023-09-12T14:09:51;11.57;;;3.00;;
49051;SDS011;34866;48.670;18.260;2023-09-12T14:12:21;10.38;;;2.70;;
49051;SDS011;34866;48.670;18.260;2023-09-12T14:14:47;10.60;;;3.08;;
49051;SDS011;34866;48.670;18.260;2023-09-12T14:17:14;9.75;;;2.47;;
49051;SDS011;34866;48.670;18.260;2023-09-12T14:19:39;15.57;;;3.90;;
49051;SDS011;34866;48.670;18.260;2023-09-12T14:22:05;11.35;;;3.58;;
49051;SDS011;34866;48.670;18.260;2023-09-12T14:24:31;5.93;;;2.60;;
49051;SDS011;34866;48.670;18.260;2023-09-12T14:26:56;13.27;;;2.95;;
49051;SDS011;34866;48.670;18.260;2023-09-12T14:29:22;10.65;;;2.80;;
49051;SDS011;34866;48.670;18.260;2023-09-12T14:31:49;11.88;;;2.70;;
49051;SDS011;34866;48.670;18.260;2023-09-12T14:34:17;8.90;;;2.60;;
49051;SDS011;34866;48.670;18.260;2023-09-12T14:36:43;7.20;;;2.47;;
49051;SDS011;34866;48.670;18.260;2023-09-12T14:39:11;12.07;;;2.47;;
49051;SDS011;34866;48.670;18.260;2023-09-12T14:41:37;6.45;;;2.90;;
49051;SDS011;34866;48.670;18.260;2023-09-12T14:44:03;8.85;;;3.28;;